x

Cape Elizabeth- 45nm Nw Of Aberdeen, Wa (46041) Wave Buoy

5:50pm - Wed 27th Aug 2014 All times are PDT. -7 hours from GMT.

  • Sig Wave height 3.6ft
  • Swell Direction
  • Peak Period 17s
  • Average Period 6s
  • Wind
    16mph, 20mph gusts
  • Sea Temp 58°f
  • Air Temp 60°f
  • Sea Pressure 1019mb
  • Cape Elizabeth- 45nm Nw Of Aberdeen, Wa
  • Cape Elizabeth- 45nm Nw Of Aberdeen, Wa

More Historic Weather Station data

Upgrade to MSW Pro to gain access to the past 30 days of data for over 8000 Wavebouys and Weather Stations around the globe.

Join Pro

Comparision Forecast

View Surf forecast
   
Wed 08/27 5:50pm 3.5ft 17s 6s 16 20 mph 1019mb 58f 60f
4:50pm 3.5ft 8s 6s 13 16 mph 1018.9mb 58f 60f
3:50pm 3.5ft 6s 6s 9 11 mph 1018.9mb 58f 60f
2:50pm 4ft 6s 6s 11 13 mph 1019mb 58f 59f
1:50pm 4ft 6s 6s 9 11 mph 1019.1mb 57f 59f
12:50pm 3.5ft 7s 6s 11 13 mph 1019mb 57f 59f
11:50am 3.5ft 8s 6s 11
mph
1019.1mb 57f 59f
10:50am 3.5ft 9s 6s 7 9 mph 1019mb 56f 58f
9:50am 3.5ft 8s 6s 7
mph
1018.9mb 56f 58f
8:50am 3.5ft 8s 6s 4 7 mph 1018.7mb 56f 58f
7:50am 3.5ft 9s 6s 4 9 mph 1018.4mb 56f 58f
6:50am 3.5ft 17s 6s 4 7 mph 1018mb 56f 57f
5:50am 3.5ft 14s 6s 11
mph
1017.5mb 56f 58f
4:50am 3.5ft 9s 6s 11 13 mph 1017.3mb 56f 58f
3:50am 3.5ft 8s 6s 11 16 mph 1017.1mb 57f 58f
2:50am 3.5ft 8s 6s 16 18 mph 1017mb 57f 58f
1:50am 3.5ft 8s 5s 13 16 mph 1017mb 57f 57f
12:50am 3.5ft 8s 6s 16 18 mph 1017mb 57f 57f
Tue 08/26 11:50pm 4ft 9s 6s 11 13 mph 1017mb 57f 57f
10:50pm 4ft 8s 6s 11 13 mph 1017.2mb 57f 57f
9:50pm 4ft 7s 6s 11 13 mph 1017.3mb 57f 57f
8:50pm 4.5ft 8s 6s 11
mph
1017.3mb 57f 57f
7:50pm 3.5ft 8s 5s 11 13 mph 1016.8mb 57f 57f
6:50pm 4ft 8s 6s 11 13 mph 1017.1mb 57f 57f
5:50pm 3.5ft 8s 6s 9 11 mph 1017.3mb 57f 57f
4:50pm 3.5ft 7s 5s 11 13 mph 1017.4mb 57f 57f
3:50pm 3.5ft 7s 5s 13 16 mph 1017.9mb 57f 58f
2:50pm 3.5ft 8s 6s 13 16 mph 1018mb 57f 58f
1:50pm 3.5ft 7s 6s 11
mph
1018.2mb 57f 57f
12:50pm 3.5ft 6s 5s 11 13 mph 1018.2mb 57f 57f
11:50am 3.5ft 6s 5s 7
mph
1018.4mb 56f 57f
10:50am 3.5ft 7s 5s 7
mph
1018.3mb 56f 56f
9:50am 3.5ft 7s 5s 7
mph
1018.3mb 55f 56f
8:50am 3.5ft 7s 5s 7
mph
1018.1mb 55f 56f
7:50am 4ft 6s 5s 9
mph
1018mb 55f 56f
6:50am 3.5ft 6s 5s 7 9 mph 1017.6mb 55f 56f
5:50am 3.5ft 6s 5s 7 9 mph 1017.2mb 55f 56f
4:50am 3.5ft 7s 5s 9 11 mph 1017.2mb 55f 56f
3:50am 3.5ft 6s 5s 11 13 mph 1016.9mb 55f 57f
2:50am 3.5ft 7s 6s 11 13 mph 1016.6mb 55f 57f
1:50am 4ft 7s 6s 11 13 mph 1016.7mb 55f 56f
12:50am 4.5ft 8s 6s 13 16 mph 1016.5mb 55f 56f
Mon 08/25 11:50pm 4.5ft 8s 6s 11 13 mph 1016.7mb 55f 56f
10:50pm 4.5ft 8s 5s 9 11 mph 1016.6mb 55f 56f
9:50pm 4.5ft 8s 5s 11 13 mph 1016.7mb 56f 56f
8:50pm 4.5ft 8s 5s 16 18 mph 1016.4mb 56f 56f
7:50pm 4.5ft 8s 6s 13 16 mph 1015.9mb 56f 56f
6:50pm 4.5ft 8s 6s 13 16 mph 1015.8mb 57f 58f
5:50pm 5ft 8s 6s 13 16 mph 1016.3mb 57f 57f
4:50pm 5ft 7s 6s 13 16 mph 1016.3mb 57f 57f
3:50pm 4.5ft 8s 6s 13 18 mph 1016.2mb 58f 58f
2:50pm 5ft 8s 6s 7 9 mph 1016.3mb 58f 58f
1:50pm 5ft 8s 6s 7 9 mph 1016.8mb 57f 57f
12:50pm 5ft 8s 7s 7
mph
1016.9mb 57f 56f
11:50am 6ft 8s 7s 7
mph
1017.1mb 56f 55f
10:50am 6ft 8s 7s 2 7 mph 1017.2mb 55f 53f
9:50am 6ft 8s 7s 2 4 mph 1017.2mb 55f 52f
8:50am 6ft 8s 7s 2
mph
1016.9mb 54f 52f
7:50am 6ft 8s 7s  -  2 mph 1016.9mb 55f 51f
6:50am 5.5ft 8s 7s 2 4 mph 1016.7mb 55f 52f
5:50am 6ft 8s 7s 2 4 mph 1016.2mb 55f 52f
4:50am 5ft 8s 7s 7 9 mph 1016.2mb 55f 53f
3:50am 5.5ft 8s 7s 9
mph
1015.9mb 56f 53f
2:50am 6ft 8s 7s 9 11 mph 1015.8mb 56f 53f
1:50am 5ft 8s 7s 7 9 mph 1015.5mb 56f 53f
12:50am 4.5ft 8s 6s 9 11 mph 1015.7mb 56f 55f
Sun 08/24 11:50pm 4.5ft 8s 6s 9 11 mph 1015.7mb 56f 55f
10:50pm 4.5ft 8s 6s 7
mph
1015.5mb 57f 55f
9:50pm 4ft 7s 6s 7 9 mph 1015.5mb 57f 56f
8:50pm 3.5ft 6s 6s 9
mph
1015.3mb 57f 57f
7:50pm 3ft 6s 6s 7 9 mph 1015mb 59f 58f
6:50pm 3.5ft 6s 6s 7 9 mph 1014.5mb 60f 59f
5:50pm 3.5ft 6s 6s 9 11 mph 1014.3mb 61f 61f
4:50pm 3ft 7s 5s 2 4 mph 1014.3mb 60f 62f
3:50pm 3.5ft 6s 5s  -  2 mph 1014.8mb 60f 62f
2:50pm 3ft 7s 5s  -  2 mph 1015mb 59f 61f
1:50pm 3.5ft 6s 6s 4
mph
1015.3mb 58f 60f
12:50pm 3.5ft 6s 6s 4
mph
1015.3mb 58f 58f
11:50am 3.5ft 7s 5s 2
mph
1015.7mb 56f 57f
10:50am 3.5ft 6s 5s 4
mph
1016mb 56f 56f
9:50am 3.5ft 7s 5s 9
mph
1016.1mb 56f 56f
8:50am 3.5ft 7s 5s 9 11 mph 1015.8mb 55f 57f
7:50am 3.5ft 7s 5s 4 7 mph 1015.9mb 55f 57f
6:50am 4.5ft 7s 6s 2
mph
1015.8mb 55f 56f
5:50am 4.5ft 7s 6s 2
mph
1015.9mb 55f 56f
4:50am 4.5ft 7s 6s 7
mph
1016.3mb 55f 56f
3:50am 4.5ft 7s 6s 7
mph
1016.6mb 55f 56f
2:50am 4.5ft 6s 5s 7 9 mph 1016.8mb 55f 56f
1:50am 4.5ft 7s 5s 11 13 mph 1016.9mb 55f 57f